sensor_id;sensor_type;location;lat;lon;timestamp;P1;durP1;ratioP1;P2;durP2;ratioP2
75548;SDS011;64133;56.002;37.208;2022-11-20T00:04:28;7.50;;;4.55;;
75548;SDS011;64133;56.002;37.208;2022-11-20T00:09:32;4.28;;;1.22;;
75548;SDS011;64133;56.002;37.208;2022-11-20T00:14:37;9.15;;;3.87;;
75548;SDS011;64133;56.002;37.208;2022-11-20T00:19:42;6.20;;;3.10;;
75548;SDS011;64133;56.002;37.208;2022-11-20T00:24:47;15.75;;;6.45;;
75548;SDS011;64133;56.002;37.208;2022-11-20T00:29:52;7.92;;;3.40;;
75548;SDS011;64133;56.002;37.208;2022-11-20T00:34:57;9.75;;;4.40;;
75548;SDS011;64133;56.002;37.208;2022-11-20T00:40:02;12.23;;;5.97;;
75548;SDS011;64133;56.002;37.208;2022-11-20T00:45:09;7.22;;;2.67;;
75548;SDS011;64133;56.002;37.208;2022-11-20T00:50:14;15.10;;;6.85;;
75548;SDS011;64133;56.002;37.208;2022-11-20T00:55:19;7.03;;;3.33;;
75548;SDS011;64133;56.002;37.208;2022-11-20T01:00:24;10.63;;;4.22;;
75548;SDS011;64133;56.002;37.208;2022-11-20T01:05:33;9.80;;;5.35;;
75548;SDS011;64133;56.002;37.208;2022-11-20T01:10:38;11.45;;;5.10;;
75548;SDS011;64133;56.002;37.208;2022-11-20T01:15:43;7.67;;;4.55;;
75548;SDS011;64133;56.002;37.208;2022-11-20T01:20:48;11.88;;;4.72;;
75548;SDS011;64133;56.002;37.208;2022-11-20T01:25:53;11.12;;;5.28;;
75548;SDS011;64133;56.002;37.208;2022-11-20T01:30:58;6.15;;;2.65;;
75548;SDS011;64133;56.002;37.208;2022-11-20T01:36:06;11.00;;;5.17;;
75548;SDS011;64133;56.002;37.208;2022-11-20T01:41:11;7.83;;;2.87;;
75548;SDS011;64133;56.002;37.208;2022-11-20T01:46:16;8.80;;;4.95;;
75548;SDS011;64133;56.002;37.208;2022-11-20T01:51:22;9.73;;;4.62;;
75548;SDS011;64133;56.002;37.208;2022-11-20T01:56:28;11.57;;;4.92;;
75548;SDS011;64133;56.002;37.208;2022-11-20T02:01:33;7.47;;;3.90;;
75548;SDS011;64133;56.002;37.208;2022-11-20T02:06:47;5.45;;;2.72;;
75548;SDS011;64133;56.002;37.208;2022-11-20T02:11:52;5.10;;;2.02;;
75548;SDS011;64133;56.002;37.208;2022-11-20T02:16:57;4.78;;;2.20;;
75548;SDS011;64133;56.002;37.208;2022-11-20T02:22:02;18.27;;;5.72;;
75548;SDS011;64133;56.002;37.208;2022-11-20T02:27:15;7.95;;;4.33;;
75548;SDS011;64133;56.002;37.208;2022-11-20T02:32:20;9.20;;;5.30;;
75548;SDS011;64133;56.002;37.208;2022-11-20T02:37:27;10.53;;;4.55;;
75548;SDS011;64133;56.002;37.208;2022-11-20T02:42:30;9.08;;;4.37;;
75548;SDS011;64133;56.002;37.208;2022-11-20T02:47:35;9.73;;;4.58;;
75548;SDS011;64133;56.002;37.208;2022-11-20T02:52:40;14.68;;;6.40;;
75548;SDS011;64133;56.002;37.208;2022-11-20T02:57:45;7.47;;;4.08;;
75548;SDS011;64133;56.002;37.208;2022-11-20T03:02:50;11.88;;;5.47;;
75548;SDS011;64133;56.002;37.208;2022-11-20T03:07:55;8.90;;;4.12;;
75548;SDS011;64133;56.002;37.208;2022-11-20T03:13:00;7.72;;;2.85;;
75548;SDS011;64133;56.002;37.208;2022-11-20T03:18:05;6.50;;;3.02;;
75548;SDS011;64133;56.002;37.208;2022-11-20T03:23:10;6.78;;;2.40;;
75548;SDS011;64133;56.002;37.208;2022-11-20T03:28:15;1.37;;;0.95;;
75548;SDS011;64133;56.002;37.208;2022-11-20T03:33:20;9.73;;;3.58;;
75548;SDS011;64133;56.002;37.208;2022-11-20T03:38:24;6.62;;;3.60;;
75548;SDS011;64133;56.002;37.208;2022-11-20T03:43:29;8.13;;;4.10;;
75548;SDS011;64133;56.002;37.208;2022-11-20T03:48:34;10.40;;;4.12;;
75548;SDS011;64133;56.002;37.208;2022-11-20T03:53:39;11.63;;;5.83;;
75548;SDS011;64133;56.002;37.208;2022-11-20T03:58:44;5.03;;;2.22;;
75548;SDS011;64133;56.002;37.208;2022-11-20T04:03:49;6.55;;;2.08;;
75548;SDS011;64133;56.002;37.208;2022-11-20T04:08:54;4.70;;;2.55;;
75548;SDS011;64133;56.002;37.208;2022-11-20T04:13:59;7.70;;;3.50;;
75548;SDS011;64133;56.002;37.208;2022-11-20T04:19:04;11.30;;;5.33;;
75548;SDS011;64133;56.002;37.208;2022-11-20T04:24:09;8.08;;;3.05;;
75548;SDS011;64133;56.002;37.208;2022-11-20T04:29:14;10.08;;;4.70;;
75548;SDS011;64133;56.002;37.208;2022-11-20T04:34:19;10.20;;;5.28;;
75548;SDS011;64133;56.002;37.208;2022-11-20T04:39:23;10.55;;;5.75;;
75548;SDS011;64133;56.002;37.208;2022-11-20T04:44:28;12.13;;;5.50;;
75548;SDS011;64133;56.002;37.208;2022-11-20T04:49:33;8.75;;;4.62;;
75548;SDS011;64133;56.002;37.208;2022-11-20T04:54:38;8.03;;;4.15;;
75548;SDS011;64133;56.002;37.208;2022-11-20T04:59:43;6.70;;;2.45;;
75548;SDS011;64133;56.002;37.208;2022-11-20T05:04:48;11.20;;;4.58;;
75548;SDS011;64133;56.002;37.208;2022-11-20T05:09:53;8.35;;;3.72;;
75548;SDS011;64133;56.002;37.208;2022-11-20T05:14:58;7.28;;;3.65;;
75548;SDS011;64133;56.002;37.208;2022-11-20T05:20:04;10.50;;;5.60;;
75548;SDS011;64133;56.002;37.208;2022-11-20T05:25:09;9.35;;;4.90;;
75548;SDS011;64133;56.002;37.208;2022-11-20T05:30:15;12.53;;;6.20;;
75548;SDS011;64133;56.002;37.208;2022-11-20T05:35:20;4.08;;;2.25;;
75548;SDS011;64133;56.002;37.208;2022-11-20T05:40:24;5.15;;;2.70;;
75548;SDS011;64133;56.002;37.208;2022-11-20T05:45:29;12.75;;;7.00;;
75548;SDS011;64133;56.002;37.208;2022-11-20T05:50:34;6.20;;;3.98;;
75548;SDS011;64133;56.002;37.208;2022-11-20T05:55:39;10.15;;;3.98;;
75548;SDS011;64133;56.002;37.208;2022-11-20T06:00:44;11.53;;;5.80;;
75548;SDS011;64133;56.002;37.208;2022-11-20T06:05:49;16.97;;;7.53;;
75548;SDS011;64133;56.002;37.208;2022-11-20T06:10:54;3.35;;;2.02;;
75548;SDS011;64133;56.002;37.208;2022-11-20T06:15:59;13.72;;;6.45;;
75548;SDS011;64133;56.002;37.208;2022-11-20T06:21:04;10.55;;;5.42;;
75548;SDS011;64133;56.002;37.208;2022-11-20T06:26:10;13.68;;;6.90;;
75548;SDS011;64133;56.002;37.208;2022-11-20T06:31:14;10.43;;;5.53;;
75548;SDS011;64133;56.002;37.208;2022-11-20T06:36:21;14.00;;;5.30;;
75548;SDS011;64133;56.002;37.208;2022-11-20T06:41:25;15.45;;;8.08;;
75548;SDS011;64133;56.002;37.208;2022-11-20T06:46:30;11.85;;;5.17;;
75548;SDS011;64133;56.002;37.208;2022-11-20T06:51:35;12.33;;;6.15;;
75548;SDS011;64133;56.002;37.208;2022-11-20T06:56:40;14.30;;;5.92;;
75548;SDS011;64133;56.002;37.208;2022-11-20T07:01:45;12.00;;;6.17;;
75548;SDS011;64133;56.002;37.208;2022-11-20T07:06:50;13.72;;;7.00;;
75548;SDS011;64133;56.002;37.208;2022-11-20T07:11:55;5.92;;;3.50;;
75548;SDS011;64133;56.002;37.208;2022-11-20T07:17:00;10.38;;;4.55;;
75548;SDS011;64133;56.002;37.208;2022-11-20T07:22:05;16.52;;;7.67;;
75548;SDS011;64133;56.002;37.208;2022-11-20T07:27:10;16.17;;;6.80;;
75548;SDS011;64133;56.002;37.208;2022-11-20T07:32:15;5.08;;;1.50;;
75548;SDS011;64133;56.002;37.208;2022-11-20T07:37:23;10.40;;;4.97;;
75548;SDS011;64133;56.002;37.208;2022-11-20T07:42:28;16.37;;;7.62;;
75548;SDS011;64133;56.002;37.208;2022-11-20T07:47:36;20.70;;;7.42;;
75548;SDS011;64133;56.002;37.208;2022-11-20T07:52:42;14.50;;;6.50;;
75548;SDS011;64133;56.002;37.208;2022-11-20T07:57:47;13.15;;;6.62;;
75548;SDS011;64133;56.002;37.208;2022-11-20T08:02:58;15.83;;;7.35;;
75548;SDS011;64133;56.002;37.208;2022-11-20T08:08:03;13.70;;;5.95;;
75548;SDS011;64133;56.002;37.208;2022-11-20T08:13:09;6.40;;;2.85;;
75548;SDS011;64133;56.002;37.208;2022-11-20T08:18:39;16.73;;;7.35;;
75548;SDS011;64133;56.002;37.208;2022-11-20T08:23:44;19.00;;;7.90;;
75548;SDS011;64133;56.002;37.208;2022-11-20T08:28:49;20.17;;;8.78;;
75548;SDS011;64133;56.002;37.208;2022-11-20T08:33:54;15.78;;;7.62;;
75548;SDS011;64133;56.002;37.208;2022-11-20T08:38:58;13.10;;;6.60;;
75548;SDS011;64133;56.002;37.208;2022-11-20T08:44:05;19.35;;;8.58;;
75548;SDS011;64133;56.002;37.208;2022-11-20T08:49:10;13.28;;;5.55;;
75548;SDS011;64133;56.002;37.208;2022-11-20T08:54:14;5.90;;;3.00;;
75548;SDS011;64133;56.002;37.208;2022-11-20T08:59:19;14.13;;;7.37;;
75548;SDS011;64133;56.002;37.208;2022-11-20T09:04:24;22.02;;;9.98;;
75548;SDS011;64133;56.002;37.208;2022-11-20T09:09:29;14.50;;;7.03;;
75548;SDS011;64133;56.002;37.208;2022-11-20T09:14:34;18.62;;;9.05;;
75548;SDS011;64133;56.002;37.208;2022-11-20T09:19:39;19.75;;;9.45;;
75548;SDS011;64133;56.002;37.208;2022-11-20T09:24:44;19.20;;;9.65;;
75548;SDS011;64133;56.002;37.208;2022-11-20T09:29:49;19.27;;;9.10;;
75548;SDS011;64133;56.002;37.208;2022-11-20T09:34:54;18.02;;;9.90;;
75548;SDS011;64133;56.002;37.208;2022-11-20T09:39:58;18.98;;;9.33;;
75548;SDS011;64133;56.002;37.208;2022-11-20T09:45:12;20.55;;;9.70;;
75548;SDS011;64133;56.002;37.208;2022-11-20T09:50:26;19.20;;;9.25;;
75548;SDS011;64133;56.002;37.208;2022-11-20T09:55:30;20.60;;;9.75;;
75548;SDS011;64133;56.002;37.208;2022-11-20T10:00:35;19.15;;;8.83;;
75548;SDS011;64133;56.002;37.208;2022-11-20T10:05:40;20.50;;;9.40;;
75548;SDS011;64133;56.002;37.208;2022-11-20T10:10:49;22.58;;;10.50;;
75548;SDS011;64133;56.002;37.208;2022-11-20T10:15:55;23.87;;;10.08;;
75548;SDS011;64133;56.002;37.208;2022-11-20T10:21:02;23.85;;;9.53;;
75548;SDS011;64133;56.002;37.208;2022-11-20T10:26:16;24.95;;;10.98;;
75548;SDS011;64133;56.002;37.208;2022-11-20T10:31:25;23.05;;;10.50;;
75548;SDS011;64133;56.002;37.208;2022-11-20T10:36:33;24.07;;;9.80;;
75548;SDS011;64133;56.002;37.208;2022-11-20T10:41:38;29.48;;;12.68;;
75548;SDS011;64133;56.002;37.208;2022-11-20T10:47:01;22.93;;;10.88;;
75548;SDS011;64133;56.002;37.208;2022-11-20T10:52:09;25.70;;;10.55;;
75548;SDS011;64133;56.002;37.208;2022-11-20T10:57:17;22.55;;;10.75;;
75548;SDS011;64133;56.002;37.208;2022-11-20T11:02:22;21.90;;;9.18;;
75548;SDS011;64133;56.002;37.208;2022-11-20T11:07:29;15.50;;;7.75;;
75548;SDS011;64133;56.002;37.208;2022-11-20T11:12:32;19.10;;;7.80;;
75548;SDS011;64133;56.002;37.208;2022-11-20T11:17:37;20.10;;;7.78;;
75548;SDS011;64133;56.002;37.208;2022-11-20T11:22:44;13.98;;;6.05;;
75548;SDS011;64133;56.002;37.208;2022-11-20T11:27:49;18.07;;;7.92;;
75548;SDS011;64133;56.002;37.208;2022-11-20T11:33:03;18.35;;;5.85;;
75548;SDS011;64133;56.002;37.208;2022-11-20T11:38:12;15.58;;;6.40;;
75548;SDS011;64133;56.002;37.208;2022-11-20T11:43:20;11.25;;;5.15;;
75548;SDS011;64133;56.002;37.208;2022-11-20T11:48:42;10.70;;;5.60;;
75548;SDS011;64133;56.002;37.208;2022-11-20T11:53:47;13.78;;;6.03;;
75548;SDS011;64133;56.002;37.208;2022-11-20T11:58:52;13.93;;;7.03;;
75548;SDS011;64133;56.002;37.208;2022-11-20T12:04:00;18.42;;;7.62;;
75548;SDS011;64133;56.002;37.208;2022-11-20T12:09:05;17.70;;;7.95;;
75548;SDS011;64133;56.002;37.208;2022-11-20T12:14:13;12.60;;;6.45;;
75548;SDS011;64133;56.002;37.208;2022-11-20T12:19:18;20.50;;;6.72;;
75548;SDS011;64133;56.002;37.208;2022-11-20T12:24:31;13.13;;;6.90;;
75548;SDS011;64133;56.002;37.208;2022-11-20T12:29:41;13.65;;;6.05;;
75548;SDS011;64133;56.002;37.208;2022-11-20T12:34:50;16.67;;;7.35;;
75548;SDS011;64133;56.002;37.208;2022-11-20T12:39:56;15.68;;;7.37;;
75548;SDS011;64133;56.002;37.208;2022-11-20T12:50:39;13.78;;;7.12;;
75548;SDS011;64133;56.002;37.208;2022-11-20T12:55:46;15.08;;;7.78;;
75548;SDS011;64133;56.002;37.208;2022-11-20T13:00:54;15.28;;;7.70;;
75548;SDS011;64133;56.002;37.208;2022-11-20T13:06:01;15.53;;;7.00;;
75548;SDS011;64133;56.002;37.208;2022-11-20T13:11:09;15.08;;;7.42;;
75548;SDS011;64133;56.002;37.208;2022-11-20T13:16:18;16.87;;;8.63;;
75548;SDS011;64133;56.002;37.208;2022-11-20T13:21:35;16.00;;;7.58;;
75548;SDS011;64133;56.002;37.208;2022-11-20T13:26:27;14.30;;;7.90;;
75548;SDS011;64133;56.002;37.208;2022-11-20T13:31:33;21.75;;;8.63;;
75548;SDS011;64133;56.002;37.208;2022-11-20T13:36:47;15.98;;;7.35;;
75548;SDS011;64133;56.002;37.208;2022-11-20T13:41:42;15.60;;;7.12;;
75548;SDS011;64133;56.002;37.208;2022-11-20T13:46:47;13.32;;;7.12;;
75548;SDS011;64133;56.002;37.208;2022-11-20T13:51:54;17.40;;;8.80;;
75548;SDS011;64133;56.002;37.208;2022-11-20T13:57:04;13.65;;;7.37;;
75548;SDS011;64133;56.002;37.208;2022-11-20T14:02:11;13.55;;;8.23;;
75548;SDS011;64133;56.002;37.208;2022-11-20T14:07:16;14.28;;;6.30;;
75548;SDS011;64133;56.002;37.208;2022-11-20T14:12:26;13.62;;;6.53;;
75548;SDS011;64133;56.002;37.208;2022-11-20T14:17:31;12.90;;;6.75;;
75548;SDS011;64133;56.002;37.208;2022-11-20T14:22:35;15.38;;;7.42;;
75548;SDS011;64133;56.002;37.208;2022-11-20T14:27:41;13.38;;;7.85;;
75548;SDS011;64133;56.002;37.208;2022-11-20T14:32:45;13.50;;;6.72;;
75548;SDS011;64133;56.002;37.208;2022-11-20T14:37:50;13.40;;;6.35;;
75548;SDS011;64133;56.002;37.208;2022-11-20T14:42:55;17.77;;;7.67;;
75548;SDS011;64133;56.002;37.208;2022-11-20T14:48:09;12.55;;;6.70;;
75548;SDS011;64133;56.002;37.208;2022-11-20T14:53:14;13.45;;;7.17;;
75548;SDS011;64133;56.002;37.208;2022-11-20T14:58:21;13.93;;;7.05;;
75548;SDS011;64133;56.002;37.208;2022-11-20T15:03:31;12.65;;;6.90;;
75548;SDS011;64133;56.002;37.208;2022-11-20T15:08:36;16.10;;;7.92;;
75548;SDS011;64133;56.002;37.208;2022-11-20T15:13:41;14.23;;;7.28;;
75548;SDS011;64133;56.002;37.208;2022-11-20T15:18:46;13.85;;;6.75;;
75548;SDS011;64133;56.002;37.208;2022-11-20T15:23:51;11.48;;;6.60;;
75548;SDS011;64133;56.002;37.208;2022-11-20T15:28:56;14.15;;;7.03;;
75548;SDS011;64133;56.002;37.208;2022-11-20T15:34:02;12.98;;;5.67;;
75548;SDS011;64133;56.002;37.208;2022-11-20T15:39:08;11.10;;;6.55;;
75548;SDS011;64133;56.002;37.208;2022-11-20T15:44:13;13.32;;;6.47;;
75548;SDS011;64133;56.002;37.208;2022-11-20T15:49:18;12.25;;;6.42;;
75548;SDS011;64133;56.002;37.208;2022-11-20T15:54:23;13.68;;;6.67;;
75548;SDS011;64133;56.002;37.208;2022-11-20T15:59:28;14.83;;;6.50;;
75548;SDS011;64133;56.002;37.208;2022-11-20T16:04:34;15.55;;;6.75;;
75548;SDS011;64133;56.002;37.208;2022-11-20T16:09:39;15.70;;;7.40;;
75548;SDS011;64133;56.002;37.208;2022-11-20T16:14:44;17.65;;;7.60;;
75548;SDS011;64133;56.002;37.208;2022-11-20T16:20:09;12.03;;;6.65;;
75548;SDS011;64133;56.002;37.208;2022-11-20T16:25:15;13.68;;;7.05;;
75548;SDS011;64133;56.002;37.208;2022-11-20T16:30:23;14.13;;;6.65;;
75548;SDS011;64133;56.002;37.208;2022-11-20T16:35:28;13.93;;;6.90;;
75548;SDS011;64133;56.002;37.208;2022-11-20T16:40:33;15.72;;;7.67;;
75548;SDS011;64133;56.002;37.208;2022-11-20T16:45:42;15.20;;;6.55;;
75548;SDS011;64133;56.002;37.208;2022-11-20T16:50:47;12.53;;;5.97;;
75548;SDS011;64133;56.002;37.208;2022-11-20T16:55:52;16.48;;;7.90;;
75548;SDS011;64133;56.002;37.208;2022-11-20T17:00:57;13.22;;;6.05;;
75548;SDS011;64133;56.002;37.208;2022-11-20T17:06:03;16.27;;;8.60;;
75548;SDS011;64133;56.002;37.208;2022-11-20T17:11:15;13.15;;;6.97;;
75548;SDS011;64133;56.002;37.208;2022-11-20T17:16:20;16.65;;;7.03;;
75548;SDS011;64133;56.002;37.208;2022-11-20T17:21:24;14.18;;;6.67;;
75548;SDS011;64133;56.002;37.208;2022-11-20T17:26:29;13.95;;;7.03;;
75548;SDS011;64133;56.002;37.208;2022-11-20T17:31:35;13.15;;;5.87;;
75548;SDS011;64133;56.002;37.208;2022-11-20T17:36:40;14.68;;;7.30;;
75548;SDS011;64133;56.002;37.208;2022-11-20T17:41:45;13.35;;;7.25;;
75548;SDS011;64133;56.002;37.208;2022-11-20T17:46:50;13.55;;;7.40;;
75548;SDS011;64133;56.002;37.208;2022-11-20T17:51:55;15.53;;;7.12;;
75548;SDS011;64133;56.002;37.208;2022-11-20T17:57:00;13.75;;;6.45;;
75548;SDS011;64133;56.002;37.208;2022-11-20T18:02:22;15.48;;;7.40;;
75548;SDS011;64133;56.002;37.208;2022-11-20T18:07:27;12.15;;;6.85;;
75548;SDS011;64133;56.002;37.208;2022-11-20T18:12:32;13.13;;;6.50;;
75548;SDS011;64133;56.002;37.208;2022-11-20T18:17:37;16.57;;;8.75;;
75548;SDS011;64133;56.002;37.208;2022-11-20T18:22:43;15.23;;;7.58;;
75548;SDS011;64133;56.002;37.208;2022-11-20T18:27:48;16.80;;;8.30;;
75548;SDS011;64133;56.002;37.208;2022-11-20T18:32:53;19.10;;;7.35;;
75548;SDS011;64133;56.002;37.208;2022-11-20T18:37:58;13.50;;;6.45;;
75548;SDS011;64133;56.002;37.208;2022-11-20T18:43:03;13.03;;;7.53;;
75548;SDS011;64133;56.002;37.208;2022-11-20T18:48:36;15.20;;;7.85;;
75548;SDS011;64133;56.002;37.208;2022-11-20T18:53:41;15.08;;;6.45;;
75548;SDS011;64133;56.002;37.208;2022-11-20T18:58:46;13.05;;;6.35;;
75548;SDS011;64133;56.002;37.208;2022-11-20T19:03:51;11.63;;;7.10;;
75548;SDS011;64133;56.002;37.208;2022-11-20T19:08:56;13.83;;;7.10;;
75548;SDS011;64133;56.002;37.208;2022-11-20T19:14:01;13.58;;;6.40;;
75548;SDS011;64133;56.002;37.208;2022-11-20T19:19:06;13.03;;;6.60;;
75548;SDS011;64133;56.002;37.208;2022-11-20T19:24:12;18.67;;;7.22;;
75548;SDS011;64133;56.002;37.208;2022-11-20T19:29:17;20.65;;;9.73;;
75548;SDS011;64133;56.002;37.208;2022-11-20T19:34:22;14.95;;;6.80;;
75548;SDS011;64133;56.002;37.208;2022-11-20T19:39:28;11.63;;;6.58;;
75548;SDS011;64133;56.002;37.208;2022-11-20T19:44:33;15.15;;;6.97;;
75548;SDS011;64133;56.002;37.208;2022-11-20T19:49:38;13.68;;;7.17;;
75548;SDS011;64133;56.002;37.208;2022-11-20T19:54:43;14.53;;;6.70;;
75548;SDS011;64133;56.002;37.208;2022-11-20T19:59:48;12.90;;;6.78;;
75548;SDS011;64133;56.002;37.208;2022-11-20T20:04:53;12.68;;;6.80;;
75548;SDS011;64133;56.002;37.208;2022-11-20T20:09:58;13.03;;;5.70;;
75548;SDS011;64133;56.002;37.208;2022-11-20T20:15:03;11.50;;;5.37;;
75548;SDS011;64133;56.002;37.208;2022-11-20T20:20:10;12.03;;;5.05;;
75548;SDS011;64133;56.002;37.208;2022-11-20T20:25:15;10.45;;;5.12;;
75548;SDS011;64133;56.002;37.208;2022-11-20T20:30:20;14.33;;;6.37;;
75548;SDS011;64133;56.002;37.208;2022-11-20T20:35:25;9.25;;;4.85;;
75548;SDS011;64133;56.002;37.208;2022-11-20T20:40:30;10.65;;;5.58;;
75548;SDS011;64133;56.002;37.208;2022-11-20T20:45:35;12.05;;;5.95;;
75548;SDS011;64133;56.002;37.208;2022-11-20T20:50:40;10.45;;;4.67;;
75548;SDS011;64133;56.002;37.208;2022-11-20T20:55:52;13.35;;;5.70;;
75548;SDS011;64133;56.002;37.208;2022-11-20T21:01:01;12.28;;;6.10;;
75548;SDS011;64133;56.002;37.208;2022-11-20T21:06:06;10.85;;;5.10;;
75548;SDS011;64133;56.002;37.208;2022-11-20T21:11:11;11.53;;;5.50;;
75548;SDS011;64133;56.002;37.208;2022-11-20T21:16:16;9.48;;;5.15;;
75548;SDS011;64133;56.002;37.208;2022-11-20T21:21:21;12.82;;;5.90;;
75548;SDS011;64133;56.002;37.208;2022-11-20T21:26:43;12.18;;;5.37;;
75548;SDS011;64133;56.002;37.208;2022-11-20T21:31:49;13.90;;;4.95;;
75548;SDS011;64133;56.002;37.208;2022-11-20T21:36:53;9.83;;;5.90;;
75548;SDS011;64133;56.002;37.208;2022-11-20T21:41:58;11.78;;;5.30;;
75548;SDS011;64133;56.002;37.208;2022-11-20T21:47:03;10.70;;;5.30;;
75548;SDS011;64133;56.002;37.208;2022-11-20T21:52:09;11.30;;;5.83;;
75548;SDS011;64133;56.002;37.208;2022-11-20T21:57:14;14.38;;;6.60;;
75548;SDS011;64133;56.002;37.208;2022-11-20T22:02:19;12.25;;;6.78;;
75548;SDS011;64133;56.002;37.208;2022-11-20T22:07:24;12.90;;;6.53;;
75548;SDS011;64133;56.002;37.208;2022-11-20T22:12:29;12.37;;;6.35;;
75548;SDS011;64133;56.002;37.208;2022-11-20T22:17:34;17.42;;;8.48;;
75548;SDS011;64133;56.002;37.208;2022-11-20T22:22:56;13.62;;;7.15;;
75548;SDS011;64133;56.002;37.208;2022-11-20T22:28:01;14.98;;;8.30;;
75548;SDS011;64133;56.002;37.208;2022-11-20T22:33:06;14.30;;;6.47;;
75548;SDS011;64133;56.002;37.208;2022-11-20T22:38:11;14.70;;;6.67;;
75548;SDS011;64133;56.002;37.208;2022-11-20T22:43:16;14.47;;;6.40;;
75548;SDS011;64133;56.002;37.208;2022-11-20T22:48:21;15.95;;;6.58;;
75548;SDS011;64133;56.002;37.208;2022-11-20T22:53:26;13.38;;;6.67;;
75548;SDS011;64133;56.002;37.208;2022-11-20T22:58:31;16.77;;;6.12;;
75548;SDS011;64133;56.002;37.208;2022-11-20T23:03:37;15.80;;;7.58;;
75548;SDS011;64133;56.002;37.208;2022-11-20T23:08:41;16.23;;;6.50;;
75548;SDS011;64133;56.002;37.208;2022-11-20T23:13:46;13.48;;;7.03;;
75548;SDS011;64133;56.002;37.208;2022-11-20T23:19:00;14.50;;;7.35;;
75548;SDS011;64133;56.002;37.208;2022-11-20T23:24:06;14.78;;;7.45;;
75548;SDS011;64133;56.002;37.208;2022-11-20T23:29:11;13.25;;;5.85;;
75548;SDS011;64133;56.002;37.208;2022-11-20T23:34:17;12.20;;;6.83;;
75548;SDS011;64133;56.002;37.208;2022-11-20T23:39:22;16.70;;;7.92;;
75548;SDS011;64133;56.002;37.208;2022-11-20T23:44:27;14.35;;;7.42;;
75548;SDS011;64133;56.002;37.208;2022-11-20T23:49:32;15.20;;;8.15;;
75548;SDS011;64133;56.002;37.208;2022-11-20T23:54:37;12.00;;;5.58;;
75548;SDS011;64133;56.002;37.208;2022-11-20T23:59:42;15.48;;;6.90;;
